Station: Adelaide Airport

  Atmospheric Gas Attenuation - ITU Rec 676-11   --------------- db/100km ---------------
Date Time Temp RH % AH g/m3 Dew Point Wind Direction Speed kph Gust kph Barometer mB Rainfall Since 9am 24GHz 47GHz 76GHz 122GHz 134GHz 241GHz
03 08:20 17.8 55 8.35 8.6 15 22 1021.8 0 18.9 24.7 37.3 97.6 91.0 313.1
03 08:10 17.1 57 8.3 8.5 15 24 1021.9 0 18.8 24.8 37.4 98.0 91.2 313.7
03 08:00 16.9 57 8.2 8.3 13 20 1021.8 0 18.6 24.7 37.1 97.2 90.2 310.0
03 07:50 17 58 8.39 8.7 13 19 1021.7 0 19.0 25.0 37.8 99.0 92.5 318.0
03 07:40 16.9 61 8.77 9.3 11 15 1021.7 0 19.8 25.6 39.3 103.1 97.4 335.3
03 07:30 16.5 62 8.71 9.2 13 17 1021.5 0 19.7 25.6 39.3 102.9 97.1 334.3
03 07:20 16.3 62 8.6 9 13 19 1021.3 0 19.5 25.5 38.9 102.0 95.9 330.1
03 07:10 16.1 62 8.5 8.8 11 15 1021.2 0 19.3 25.4 38.6 101.2 94.9 326.4
03 07:00 16 65 8.86 9.4 9 13 1021 0 20.0 26.0 40.1 105.1 99.6 343.1
03 06:50 15.5 69 9.12 9.8 9 13 1020.9 0 20.6 26.5 41.4 108.5 103.7 357.2
03 06:40 15.3 68 8.88 9.4 9 13 1020.9 0 20.1 26.2 40.5 106.2 100.8 347.0
03 06:30 15 70 8.98 9.6 11 13 1020.9 0 20.3 26.4 41.1 107.7 102.5 352.9
03 06:20 14.8 72 9.12 9.8 11 15 1020.9 0 20.6 26.7 41.7 109.5 104.6 360.4
03 06:10 14.5 74 9.2 9.9 9 11 1020.8 0 20.8 27.0 42.2 110.8 106.1 365.5
03 06:00 14.2 75 9.16 9.8 9 11 1020.7 0 20.8 27.0 42.2 110.8 106.0 365.0
03 05:50 14 74 8.93 9.4 7 9 1020.6 0 20.3 26.7 41.4 108.5 103.1 355.0
03 05:40 14.2 74 9.04 9.6 7 9 1020.5 0 20.5 26.8 41.7 109.4 104.3 359.3
03 05:30 14.4 73 9.02 9.6 9 11 1020.4 0 20.4 26.7 41.5 108.9 103.8 357.4
03 05:20 14.6 72 9.01 9.6 9 11 1020.4 0 20.4 26.6 41.4 108.5 103.4 356.0
03 05:00 14.8 71 8.99 9.6 7 13 1020.3 0 20.4 26.5 41.2 108.0 102.9 354.1
03 04:50 14.9 71 9.05 9.7 9 9 1020.1 0 20.5 26.6 41.4 108.5 103.5 356.4
03 04:40 14.8 71 8.99 9.6 7 9 1020.1 0 20.4 26.5 41.2 108.0 102.8 354.1
03 04:30 14.8 72 9.12 9.8 9 11 1020.1 0 20.6 26.7 41.7 109.4 104.6 360.1
03 04:20 14.8 71 8.99 9.6 7 9 1020.1 0 20.4 26.5 41.2 108.0 102.8 354.1
03 04:10 14.8 71 8.99 9.6 9 11 1020.1 0 20.4 26.5 41.2 108.0 102.8 354.1
03 04:00 14.7 71 8.94 9.5 7 9 1020.2 0 20.3 26.4 41.0 107.6 102.3 352.2
03 03:50 14.7 72 9.07 9.7 4 9 1020.2 0 20.5 26.7 41.5 109.0 104.0 358.3
03 03:40 14.7 71 8.94 9.5 0 0 1020.3 0 20.3 26.4 41.0 107.6 102.3 352.3
03 03:30 14.6 72 9.01 9.6 4 7 1020.4 0 20.4 26.6 41.4 108.5 103.4 356.0
03 03:20 14.6 72 9.01 9.6 6 7 1020.4 0 20.4 26.6 41.4 108.5 103.4 356.0
03 03:10 14.5 72 8.96 9.5 0 0 1020.5 0 20.3 26.5 41.2 108.1 102.9 354.2
03 03:00 14.3 74 9.09 9.7 0 4 1020.6 0 20.6 26.8 41.9 109.8 104.9 361.2
03 02:50 14 75 9.05 9.6 6 7 1020.6 0 20.5 26.8 41.9 109.8 104.8 360.7
03 02:40 13.6 77 9.06 9.6 7 9 1020.6 0 20.6 27.0 42.1 110.5 105.4 363.0
03 02:30 13.2 77 8.84 9.3 7 9 1020.5 0 20.1 26.7 41.4 108.6 103.0 354.4
03 02:20 13 77 8.73 9.1 9 9 1020.5 0 19.9 26.6 41.1 107.7 101.8 350.1
03 02:10 13 77 8.73 9.1 9 11 1020.7 0 19.9 26.6 41.1 107.7 101.8 350.2
03 02:00 12.9 77 8.68 9 7 9 1020.7 0 19.8 26.6 40.9 107.3 101.2 348.2
03 01:50 12.8 77 8.63 8.9 7 9 1020.6 0 19.7 26.5 40.8 106.9 100.7 346.3
03 01:40 12.8 77 8.63 8.9 7 9 1020.6 0 19.7 26.5 40.8 106.9 100.7 346.3
03 01:30 12.9 76 8.57 8.8 7 9 1020.6 0 19.6 26.4 40.5 106.1 99.8 343.0
03 01:20 12.9 76 8.57 8.8 7 9 1020.9 0 19.6 26.4 40.5 106.1 99.8 343.1
03 01:10 13 75 8.51 8.7 7 9 1020.8 0 19.4 26.3 40.2 105.3 98.8 339.8
03 01:00 13.1 74 8.44 8.6 7 9 1020.8 0 19.3 26.1 39.8 104.4 97.8 336.1
03 00:50 13.1 74 8.44 8.6 7 9 1020.6 0 19.3 26.1 39.8 104.4 97.8 336.1
03 00:40 13 74 8.39 8.5 9 9 1020.7 0 19.2 26.1 39.7 104.0 97.2 334.2
03 00:30 13.1 73 8.33 8.4 7 9 1020.7 0 19.0 25.9 39.4 103.3 96.3 331.0
03 00:20 13.3 73 8.43 8.6 7 9 1020.8 0 19.2 26.0 39.7 104.1 97.4 334.8
03 00:10 13.4 72 8.37 8.5 9 11 1020.9 0 19.1 25.9 39.4 103.3 96.5 331.6
03 00:00 13.5 71 8.31 8.4 9 15 1020.9 0 19.0 25.8 39.1 102.5 95.6 328.4
02 23:50 13.7 70 8.29 8.3 13 17 1020.8 0 18.9 25.7 38.9 102.1 95.0 326.7
02 23:40 13.9 69 8.27 8.3 13 17 1020.7 0 18.9 25.6 38.8 101.6 94.5 324.9
02 23:30 13.9 69 8.27 8.3 11 17 1020.8 0 18.9 25.6 38.8 101.6 94.5 324.9
02 23:20 14 68 8.2 8.2 13 17 1021 0 18.7 25.5 38.4 100.7 93.5 321.4
02 23:10 14.1 68 8.25 8.3 13 17 1021 0 18.8 25.5 38.6 101.1 94.1 323.2
02 23:00 14.3 67 8.23 8.3 11 15 1021 0 18.8 25.4 38.4 100.7 93.6 321.5
02 22:50 14.5 66 8.21 8.2 15 22 1020.8 0 18.7 25.3 38.2 100.2 93.0 319.7
02 22:40 14.4 66 8.16 8.1 17 20 1020.7 0 18.6 25.3 38.1 99.8 92.5 317.8
02 22:30 14.6 65 8.13 8.1 17 22 1020.6 0 18.5 25.2 37.9 99.2 91.9 315.7
02 22:20 14.7 65 8.18 8.2 19 28 1020.6 0 18.6 25.2 38.0 99.6 92.4 317.5
02 22:10 14.7 64 8.06 8 19 26 1020.7 0 18.4 25.1 37.5 98.4 90.9 312.1
02 22:00 14.8 64 8.11 8.1 20 26 1020.5 0 18.5 25.1 37.7 98.7 91.4 313.9
02 21:50 15 63 8.08 8 15 26 1020.4 0 18.4 25.0 37.5 98.2 90.7 311.8
02 21:40 15.1 63 8.13 8.1 19 26 1020.4 0 18.5 25.0 37.6 98.6 91.3 313.6
02 21:30 15.1 62 8 7.9 19 28 1020.3 0 18.2 24.8 37.1 97.2 89.6 307.8
02 21:20 15.2 62 8.05 8 20 32 1020.1 0 18.3 24.9 37.3 97.6 90.1 309.6
02 21:10 15.5 60 7.93 7.8 24 35 1020 0 18.1 24.6 36.6 96.0 88.2 303.0
02 21:00 15.6 61 8.11 8.1 24 35 1019.9 0 18.5 24.9 37.3 97.7 90.4 310.6
02 20:50 15.7 60 8.03 8 24 32 1019.7 0 18.3 24.7 36.9 96.7 89.3 306.6
02 20:40 15.9 58 7.85 7.7 30 37 1019.5 0 17.9 24.4 36.1 94.6 86.7 297.9
02 20:30 16.2 58 8 7.9 32 39 1019.2 0 18.2 24.5 36.6 95.8 88.3 303.3
02 20:20 16.5 56 7.86 7.7 30 39 1019.1 0 17.9 24.2 35.9 94.0 86.2 296.0
02 20:10 16.8 56 8.01 8 28 37 1018.9 0 18.2 24.3 36.3 95.1 87.7 301.4
02 20:00 17.3 54 7.95 7.9 28 37 1018.8 0 18.0 24.1 35.9 93.9 86.4 296.9
02 19:50 17.7 52 7.85 7.7 26 33 1018.7 0 17.8 23.8 35.3 92.4 84.7 291.1
02 19:40 18.2 52 8.08 8.2 24 33 1018.5 0 18.3 24.1 35.9 94.1 87.0 299.1
02 19:30 17.9 61 9.31 10.3 22 32 1018.5 0 20.9 26.0 40.8 107.0 102.8 354.3
02 19:20 18.5 57 9.02 9.8 20 32 1018.4 0 20.2 25.4 39.3 103.2 98.3 338.8
02 19:10 18.7 53 8.48 8.9 28 35 1018.2 0 19.1 24.5 37.2 97.5 91.3 314.3
02 19:00 18.4 57 8.96 9.7 30 41 1018.1 0 20.1 25.3 39.1 102.7 97.7 336.5
02 18:50 18.8 57 9.18 10.1 32 39 1017.9 0 20.6 25.5 39.8 104.4 99.9 344.4
02 18:40 19 58 9.45 10.6 30 41 1017.7 0 21.1 25.9 40.7 106.9 103.1 355.5
02 18:30 19.2 60 9.89 11.3 33 41 1017.5 0 22.1 26.5 42.3 111.2 108.4 374.2
02 18:20 19.1 56 9.18 10.1 32 44 1017.3 0 20.6 25.4 39.6 104.0 99.5 343.0
02 18:10 19.2 58 9.56 10.7 30 39 1017.2 0 21.4 26.0 41.0 107.7 104.2 359.3
02 18:00 19.3 55 9.12 10 32 43 1017.1 0 20.4 25.3 39.3 103.1 98.5 339.4
02 17:50 19.4 53 8.84 9.6 35 46 1017 0 19.8 24.8 38.2 100.1 94.9 326.8
02 17:40 19.8 56 9.56 10.8 35 50 1016.9 0 21.3 25.8 40.7 106.9 103.3 356.5
02 17:30 19.4 53 8.84 9.6 37 50 1016.7 0 19.8 24.8 38.2 100.1 94.8 326.7
02 17:20 19.7 55 9.34 10.4 35 46 1016.6 0 20.9 25.5 39.9 104.7 100.7 347.2
02 17:10 20.1 54 9.39 10.5 33 43 1016.6 0 21.0 25.5 39.9 104.7 100.8 347.6
02 17:00 20.8 54 9.78 11.2 35 44 1016.5 0 21.7 25.9 41.0 107.7 104.8 361.6
02 16:50 20.4 54 9.55 10.8 35 46 1016.6 0 21.3 25.6 40.3 106.0 102.4 353.3
02 16:40 20 57 9.85 11.2 35 50 1016.4 0 21.9 26.2 41.7 109.5 106.7 368.3
02 16:30 20.4 55 9.73 11.1 39 52 1016.5 0 21.7 25.9 41.0 107.8 104.7 361.2
02 16:20 20.4 58 10.26 11.9 39 50 1016.6 0 22.8 26.7 43.1 113.3 111.4 384.8
02 16:10 21 58 10.62 12.4 35 48 1016.5 0 23.5 27.1 44.2 116.1 115.1 397.9
02 16:00 20.3 56 9.85 11.2 37 48 1016.6 0 21.9 26.1 41.5 109.2 106.3 367.0
02 15:50 20.6 57 10.2 11.8 37 52 1016.7 0 22.6 26.6 42.7 112.4 110.4 381.2
02 15:40 20.7 57 10.26 11.9 37 48 1016.8 0 22.8 26.6 42.9 112.8 111.0 383.4

Last Refresh: 03-Dec-2021 08:28:01

Bureau of Meteorology